Time;durP1;ratioP1;P1;durP2;ratioP2;P2;SDS_P1;SDS_P2;PMS_P1;PMS_P2;Temp;Humidity;BMP_temperature;BMP_pressure;BME280_temperature;BME280_humidity;BME280_pressure;Samples;Min_cycle;Max_cycle;Signal;HPM_P1;HPM_P2
2022/07/01 00:01:56;;;;;;;25.43;5.70;;;;;;;25.81;59.29;99004.13;7315284;19;129172;-36
2022/07/01 00:04:25;;;;;;;16.23;4.73;;;;;;;25.79;58.48;98991.16;7315808;19;129062;-37
2022/07/01 00:06:51;;;;;;;16.02;4.93;;;;;;;25.80;58.73;98991.97;7315534;19;129895;-37
2022/07/01 00:09:16;;;;;;;22.23;4.93;;;;;;;25.80;59.06;98986.72;7316510;19;129404;-38
2022/07/01 00:11:42;;;;;;;18.33;4.80;;;;;;;25.73;58.43;98970.81;7316309;19;129364;-38
2022/07/01 00:14:07;;;;;;;27.73;5.27;;;;;;;25.81;59.03;98978.63;7314941;19;129586;-38
2022/07/01 00:16:33;;;;;;;16.93;4.33;;;;;;;25.79;58.33;98970.06;7317106;19;129142;-36
2022/07/01 00:18:58;;;;;;;25.83;4.97;;;;;;;25.80;58.52;98976.97;7316958;19;129207;-38
2022/07/01 00:21:24;;;;;;;17.20;4.80;;;;;;;25.79;58.74;98970.06;7314604;19;129147;-38
2022/07/01 00:23:49;;;;;;;16.53;4.17;;;;;;;25.80;57.67;98961.16;7317250;19;130177;-39
2022/07/01 00:26:14;;;;;;;19.33;5.00;;;;;;;25.81;58.89;98962.81;7313724;19;129435;-37
2022/07/01 00:28:40;;;;;;;4.53;3.33;;;;;;;25.80;58.14;98960.38;7317926;19;129636;-38
2022/07/01 00:31:05;;;;;;;29.57;5.83;;;;;;;25.73;58.13;98943.66;7314349;19;129385;-37
2022/07/01 00:33:30;;;;;;;19.20;4.50;;;;;;;25.81;59.10;98967.25;7318627;19;130539;-37
2022/07/01 00:35:56;;;;;;;23.33;5.27;;;;;;;25.75;58.61;98963.53;7316134;19;129828;-40
2022/07/01 00:38:21;;;;;;;25.87;5.70;;;;;;;25.81;58.29;98972.53;7315555;19;129864;-37
2022/07/01 00:40:54;;;;;;;22.83;5.53;;;;;;;25.81;60.06;98968.09;7316343;19;129103;-38
2022/07/01 00:43:22;;;;;;;27.83;5.38;;;;;;;25.82;58.33;98974.19;7312970;19;128996;-38
2022/07/01 00:45:49;;;;;;;17.67;3.95;;;;;;;25.80;58.96;98970.91;7315784;19;131201;-36
2022/07/01 00:48:15;;;;;;;14.05;4.60;;;;;;;25.81;58.87;98970.72;7317138;19;129168;-38
2022/07/01 00:50:41;;;;;;;25.25;5.13;;;;;;;25.81;58.09;98972.53;7314749;19;129376;-39
2022/07/01 00:53:06;;;;;;;21.57;4.80;;;;;;;25.80;57.97;98958.53;7316138;19;129208;-38
2022/07/01 00:55:31;;;;;;;29.90;5.70;;;;;;;25.81;59.02;98962.81;7316011;19;130835;-37
2022/07/01 00:57:58;;;;;;;7.00;3.77;;;;;;;25.74;58.30;98951.38;7315558;19;128993;-37
2022/07/01 01:00:26;;;;;;;19.73;4.55;;;;;;;25.82;58.37;98964.44;7315829;19;129485;-38
2022/07/01 01:02:53;;;;;;;23.08;4.93;;;;;;;25.81;58.29;98965.44;7312786;19;129250;-37
2022/07/01 01:05:20;;;;;;;19.15;4.47;;;;;;;25.73;58.94;98947.13;7315362;19;129336;-37
2022/07/01 01:07:47;;;;;;;24.30;4.93;;;;;;;25.82;58.29;98966.28;7315872;19;128910;-38
2022/07/01 01:10:14;;;;;;;28.55;5.25;;;;;;;25.81;58.62;98957.56;7316190;19;128911;-36
2022/07/01 01:12:39;;;;;;;;;;;;;;;25.89;60.35;98946.91;7314230;19;130230;-40
2022/07/01 01:15:06;;;;;;;27.83;5.22;;;;;;;25.84;58.90;98946.66;7311735;19;129378;-37
2022/07/01 01:17:31;;;;;;;17.77;4.60;;;;;;;25.81;58.92;98941.75;7315975;19;129591;-37
2022/07/01 01:19:56;;;;;;;33.47;6.20;;;;;;;25.81;58.75;98941.75;7314198;19;129001;-37
2022/07/01 01:22:22;;;;;;;18.77;4.50;;;;;;;25.81;58.77;98931.22;7312544;19;129475;-38
2022/07/01 01:24:47;;;;;;;27.67;5.53;;;;;;;25.82;58.63;98926.78;7312301;19;129475;-40
2022/07/01 01:27:14;;;;;;;11.97;4.30;;;;;;;25.82;58.45;98924.16;7313002;19;128929;-36
2022/07/01 01:29:40;;;;;;;34.83;5.53;;;;;;;25.82;58.67;98917.03;7315165;19;129311;-36
2022/07/01 01:32:06;;;;;;;22.60;4.80;;;;;;;25.82;59.41;98917.03;7310758;19;129137;-38
2022/07/01 01:34:32;;;;;;;;;;;;;;;25.90;60.36;98916.13;7316012;19;129098;-39
2022/07/01 01:36:58;;;;;;;23.45;5.00;;;;;;;25.83;58.25;98910.78;7312981;19;129124;-42
2022/07/01 01:39:24;;;;;;;20.43;4.87;;;;;;;25.76;58.24;98896.72;7315601;19;129240;-40
2022/07/01 01:41:49;;;;;;;16.87;4.20;;;;;;;25.83;58.69;98912.59;7313018;19;129354;-36
2022/07/01 01:44:15;;;;;;;21.00;4.57;;;;;;;25.82;58.51;98905.72;7313772;19;130403;-37
2022/07/01 01:46:40;;;;;;;16.20;4.10;;;;;;;25.82;59.35;98901.25;7314080;19;128804;-41
2022/07/01 01:49:06;;;;;;;9.67;3.50;;;;;;;25.82;59.17;98908.34;7315685;19;129105;-37
2022/07/01 01:51:32;;;;;;;15.23;3.97;;;;;;;25.82;58.54;98906.50;7311950;19;129477;-36
2022/07/01 01:53:58;;;;;;;25.53;5.20;;;;;;;25.83;58.85;98905.53;7314542;19;130020;-37
2022/07/01 01:56:24;;;;;;;20.63;4.80;;;;;;;25.82;58.48;98906.50;7314271;19;129026;-37
2022/07/01 01:58:49;;;;;;;8.27;3.90;;;;;;;25.83;58.57;98908.16;7314955;19;129655;-38
2022/07/01 02:01:16;;;;;;;21.07;4.10;;;;;;;25.82;58.61;98901.25;7311981;19;129094;-40
2022/07/01 02:03:43;;;;;;;20.75;4.70;;;;;;;25.81;59.13;98907.50;7309472;19;129769;-39
2022/07/01 02:06:10;;;;;;;14.82;4.32;;;;;;;25.81;58.39;98910.16;7314467;19;129131;-38
2022/07/01 02:08:36;;;;;;;17.55;3.80;;;;;;;25.83;58.34;98907.34;7312573;19;128865;-40
2022/07/01 02:11:02;;;;;;;18.30;4.15;;;;;;;25.82;58.71;98909.13;7313898;19;129891;-36
2022/07/01 02:13:28;;;;;;;41.70;6.43;;;;;;;25.83;58.56;98917.88;7312452;19;130343;-38
2022/07/01 02:15:54;;;;;;;21.40;5.30;;;;;;;25.81;58.54;98912.78;7314468;19;129155;-37
2022/07/01 02:18:20;;;;;;;22.10;4.83;;;;;;;25.82;57.78;98917.03;7313525;19;129028;-37
2022/07/01 02:20:45;;;;;;;20.27;4.23;;;;;;;25.84;58.25;98924.75;7311600;19;129346;-37
2022/07/01 02:23:11;;;;;;;17.63;4.13;;;;;;;25.76;58.77;98916.94;7311949;19;129156;-38
2022/07/01 02:25:37;;;;;;;23.10;4.70;;;;;;;25.75;58.23;98910.88;7312057;19;128887;-42
2022/07/01 02:28:03;;;;;;;25.00;4.80;;;;;;;25.83;58.88;98931.03;7313109;19;128755;-38
2022/07/01 02:30:28;;;;;;;21.77;4.67;;;;;;;25.82;59.19;98938.09;7311660;19;130217;-38
2022/07/01 02:32:54;;;;;;;16.80;4.35;;;;;;;25.83;58.69;98938.94;7311947;19;130222;-39
2022/07/01 02:35:20;;;;;;;26.53;4.77;;;;;;;25.84;58.84;98949.28;7312051;19;130480;-37
2022/07/01 02:37:45;;;;;;;35.33;6.40;;;;;;;25.85;58.37;98948.28;7312322;19;129286;-37
2022/07/01 02:40:13;;;;;;;17.60;4.40;;;;;;;25.85;58.64;98955.38;7311246;19;129592;-37
2022/07/01 02:42:38;;;;;;;19.75;4.63;;;;;;;25.84;58.83;98956.34;7310096;19;130573;-36
2022/07/01 02:45:05;;;;;;;23.60;4.50;;;;;;;25.83;59.16;98955.56;7310967;19;129013;-37
2022/07/01 02:47:41;;;;;;;16.65;3.85;;;;;;;25.85;60.22;98958.00;7312873;19;129104;-38
2022/07/01 02:50:08;;;;;;;27.48;5.10;;;;;;;25.83;59.33;98950.28;7310964;19;129560;-38
2022/07/01 02:52:35;;;;;;;15.82;3.97;;;;;;;25.83;59.27;98949.47;7309630;19;129204;-36
2022/07/01 02:55:01;;;;;;;;;;;;;;;25.91;60.69;98950.19;7313561;19;128834;-39
2022/07/01 02:57:26;;;;;;;38.13;5.65;;;;;;;25.85;59.12;98958.81;7310975;19;128768;-38
2022/07/01 02:59:52;;;;;;;27.57;5.43;;;;;;;25.82;59.06;98964.44;7312201;19;129414;-42
2022/07/01 03:02:21;;;;;;;16.73;3.90;;;;;;;25.83;58.60;98971.38;7309823;19;129406;-37
2022/07/01 03:04:50;;;;;;;19.08;3.85;;;;;;;25.83;60.10;98971.38;7311212;19;128869;-40
2022/07/01 03:07:17;;;;;;;22.02;4.40;;;;;;;25.82;58.77;98974.97;7308621;19;129228;-37
2022/07/01 03:09:43;;;;;;;20.35;4.13;;;;;;;25.83;58.51;98974.00;7309692;19;128999;-37
2022/07/01 03:12:24;;;;;;;10.20;3.50;;;;;;;25.83;58.62;98970.53;7309223;19;129708;-37
2022/07/01 03:14:59;;;;;;;20.52;4.10;;;;;;;25.83;59.57;98965.28;7311622;19;129190;-37
2022/07/01 03:17:27;;;;;;;24.73;4.22;;;;;;;25.84;58.97;98967.72;7311395;19;128868;-37
2022/07/01 03:19:53;;;;;;;50.35;6.57;;;;;;;25.82;58.28;98967.06;7308964;19;129878;-41
2022/07/01 03:22:23;;;;;;;14.80;3.40;;;;;;;25.77;58.23;98951.00;7308895;19;129540;-38
2022/07/01 03:24:50;;;;;;;19.88;4.15;;;;;;;25.83;58.47;98966.09;7312717;19;129163;-37
2022/07/01 03:27:16;;;;;;;29.63;5.00;;;;;;;25.84;59.55;98959.81;7311404;19;129710;-38
2022/07/01 03:29:42;;;;;;;24.67;4.20;;;;;;;25.84;58.34;98964.25;7311886;19;130112;-39
2022/07/01 03:32:11;;;;;;;29.87;4.70;;;;;;;25.87;58.38;98969.97;7308105;19;130932;-36
2022/07/01 03:34:37;;;;;;;18.85;3.92;;;;;;;25.82;58.54;98974.97;7310753;19;129251;-38
2022/07/01 03:37:04;;;;;;;35.55;5.25;;;;;;;25.83;58.71;98976.63;7311201;19;128819;-39
2022/07/01 03:39:29;;;;;;;29.20;4.55;;;;;;;25.87;57.54;98977.06;7308560;19;130287;-39
2022/07/01 03:41:55;;;;;;;26.27;4.57;;;;;;;25.85;58.88;98976.44;7307271;19;129603;-38
2022/07/01 03:44:20;;;;;;;20.00;3.87;;;;;;;25.86;58.68;98976.25;7309487;19;129287;-40
2022/07/01 03:46:46;;;;;;;44.77;5.60;;;;;;;25.84;58.49;98978.25;7310128;19;128898;-38
2022/07/01 03:49:11;;;;;;;23.57;4.37;;;;;;;25.85;58.48;98979.88;7315901;19;130017;-36
2022/07/01 03:51:37;;;;;;;17.40;3.57;;;;;;;25.87;58.24;98990.22;7314381;19;129757;-40
2022/07/01 03:56:46;;;;;;;8.65;3.13;;;;;;;25.87;58.95;98992.84;7316411;19;130477;-37
2022/07/01 03:59:11;;;;;;;21.40;4.10;;;;;;;25.88;58.67;98999.78;7315436;19;129685;-37
2022/07/01 04:01:37;;;;;;;28.70;4.70;;;;;;;25.87;59.59;99008.66;7314786;19;129814;-39
2022/07/01 04:04:02;;;;;;;21.87;3.87;;;;;;;25.84;58.82;99001.97;7312385;19;129146;-36
2022/07/01 04:06:28;;;;;;;24.07;4.27;;;;;;;25.87;58.55;99008.66;7316721;19;129068;-38
2022/07/01 04:08:53;;;;;;;41.07;5.53;;;;;;;25.84;59.02;99014.28;7315340;19;128985;-39
2022/07/01 04:11:19;;;;;;;28.83;4.90;;;;;;;25.84;59.00;99012.50;7315249;19;129203;-36
2022/07/01 04:13:50;;;;;;;20.57;4.50;;;;;;;25.84;59.07;99019.56;7316703;19;129219;-38
2022/07/01 04:16:19;;;;;;;30.40;4.50;;;;;;;25.84;59.42;99020.41;7313594;19;129132;-40
2022/07/01 04:18:46;;;;;;;47.88;6.53;;;;;;;25.85;59.23;99037.03;7313549;19;128960;-36
2022/07/01 04:23:56;;;;;;;24.20;4.10;;;;;;;25.83;58.61;99042.47;7316348;19;129265;-37
2022/07/01 04:26:25;;;;;;;39.40;5.25;;;;;;;25.85;59.89;99050.97;7314372;19;129590;-37
2022/07/01 04:28:52;;;;;;;53.45;7.07;;;;;;;25.83;58.59;99055.63;7315225;19;129477;-38
2022/07/01 04:31:18;;;;;;;33.35;5.40;;;;;;;25.85;59.53;99048.34;7296472;19;129807;-37
2022/07/01 04:33:44;;;;;;;22.48;4.13;;;;;;;25.85;59.26;99050.19;7312866;19;129364;-37
2022/07/01 04:36:09;;;;;;;36.93;5.30;;;;;;;25.83;59.54;99037.19;7314566;19;129001;-37
2022/07/01 04:38:35;;;;;;;46.93;6.47;;;;;;;25.85;58.90;99052.81;7311618;19;129376;-37
2022/07/01 04:43:44;;;;;;;23.00;4.45;;;;;;;25.86;58.88;99054.44;7310873;19;128685;-40
2022/07/01 04:46:09;;;;;;;23.67;4.47;;;;;;;25.88;58.75;99052.47;7312462;19;129423;-37
2022/07/01 04:48:34;;;;;;;32.53;4.93;;;;;;;25.87;58.60;99051.63;7313041;19;129353;-39
2022/07/01 04:51:00;;;;;;;18.03;3.93;;;;;;;25.87;58.70;99056.91;7311265;19;130368;-38
2022/07/01 04:53:25;;;;;;;24.03;4.17;;;;;;;25.88;58.80;99055.91;7311484;19;129667;-37
2022/07/01 04:55:51;;;;;;;49.17;6.50;;;;;;;25.87;59.12;99046.38;7311192;19;129608;-40
2022/07/01 04:58:16;;;;;;;23.57;4.27;;;;;;;25.89;58.24;99046.19;7311485;19;129495;-37
2022/07/01 05:00:42;;;;;;;53.50;6.83;;;;;;;25.86;58.78;99039.47;7310856;19;129487;-38
2022/07/01 05:03:08;;;;;;;35.20;5.88;;;;;;;25.88;58.46;99055.91;7309147;19;129158;-38
2022/07/01 05:05:33;;;;;;;29.87;4.77;;;;;;;25.80;59.58;99055.19;7313159;19;129008;-38
2022/07/01 05:07:59;;;;;;;30.57;4.67;;;;;;;25.88;58.94;99071.72;7313343;19;130209;-37
2022/07/01 05:10:24;;;;;;;17.93;4.27;;;;;;;25.88;59.35;99079.63;7312234;19;129251;-37
2022/07/01 05:12:49;;;;;;;15.87;3.97;;;;;;;25.88;59.20;99074.34;7312086;19;128862;-40
2022/07/01 05:15:15;;;;;;;26.60;4.80;;;;;;;25.84;57.86;99059.91;7312724;19;129765;-37
2022/07/01 05:23:08;;;;;;;25.58;5.03;;;;;;;25.79;59.45;99079.84;7312839;19;129117;-40
2022/07/01 05:25:33;;;;;;;43.10;6.00;;;;;;;25.87;59.05;99104.31;7312169;19;129094;-37
2022/07/01 05:27:59;;;;;;;21.20;4.27;;;;;;;25.88;59.04;99099.88;7313353;19;129350;-40
2022/07/01 05:30:24;;;;;;;22.40;4.07;;;;;;;25.86;58.70;99107.94;7312659;19;129760;-39
2022/07/01 05:32:50;;;;;;;20.67;4.40;;;;;;;25.86;58.30;99107.94;7311242;19;128975;-37
2022/07/01 05:35:15;;;;;;;26.37;4.80;;;;;;;25.90;59.39;99108.41;7313411;19;129702;-39
2022/07/01 05:37:41;;;;;;;11.97;4.13;;;;;;;25.88;59.26;99111.22;7314028;19;129192;-39
2022/07/01 05:40:08;;;;;;;26.65;4.93;;;;;;;25.88;58.54;99110.41;7310827;19;130297;-38
2022/07/01 05:42:33;;;;;;;33.75;5.20;;;;;;;25.87;59.11;99114.84;7311311;19;129074;-38
2022/07/01 05:44:59;;;;;;;25.40;5.47;;;;;;;25.78;57.99;99105.41;7313560;19;128777;-39
2022/07/01 05:47:24;;;;;;;26.27;4.77;;;;;;;25.88;59.20;99115.66;7313990;19;128945;-38
2022/07/01 05:49:49;;;;;;;30.40;5.20;;;;;;;25.80;58.36;99108.66;7311305;19;129386;-38
2022/07/01 05:52:15;;;;;;;19.37;4.20;;;;;;;25.88;58.80;99105.13;7310968;19;128786;-40
2022/07/01 05:54:40;;;;;;;28.70;5.00;;;;;;;25.89;59.08;99118.13;7313917;19;129350;-38
2022/07/01 05:57:05;;;;;;;25.17;4.27;;;;;;;25.89;59.53;99118.13;7312694;19;129384;-38
2022/07/01 05:59:31;;;;;;;24.73;4.87;;;;;;;25.88;58.59;99126.22;7313744;19;129315;-41
2022/07/01 06:01:56;;;;;;;29.23;4.40;;;;;;;25.88;58.92;99121.75;7309085;19;129471;-39
2022/07/01 06:04:22;;;;;;;22.30;4.03;;;;;;;25.88;58.53;99120.94;7309669;19;129238;-38
2022/07/01 06:06:47;;;;;;;29.67;4.90;;;;;;;25.87;58.72;99130.66;7311115;19;130894;-42
2022/07/01 06:09:12;;;;;;;11.50;4.00;;;;;;;25.88;58.71;99124.41;7306948;19;133366;-38
2022/07/01 06:11:38;;;;;;;28.70;4.87;;;;;;;25.88;59.33;99132.31;7308278;19;129195;-38
2022/07/01 06:14:03;;;;;;;38.27;6.10;;;;;;;25.88;59.40;99132.31;7309710;19;129243;-40
2022/07/01 06:16:29;;;;;;;21.13;4.80;;;;;;;25.89;59.22;99133.94;7313662;19;129096;-38
2022/07/01 06:18:54;;;;;;;38.87;5.43;;;;;;;25.88;59.01;99129.66;7307311;19;129893;-38
2022/07/01 06:21:20;;;;;;;18.50;4.20;;;;;;;25.88;59.00;99137.56;7311755;19;129282;-39
2022/07/01 06:23:45;;;;;;;22.43;4.47;;;;;;;25.90;58.62;99129.50;7308729;19;128893;-38
2022/07/01 06:26:11;;;;;;;19.80;4.27;;;;;;;25.84;58.40;99128.38;7310214;19;130645;-37
2022/07/01 06:28:36;;;;;;;52.77;7.70;;;;;;;25.86;59.75;99152.72;7307284;19;129822;-38
2022/07/01 06:31:02;;;;;;;28.00;5.27;;;;;;;25.88;59.97;99136.75;7307680;19;129679;-41
2022/07/01 06:33:30;;;;;;;21.43;4.93;;;;;;;25.94;59.62;99139.47;7311404;19;129042;-38
2022/07/01 06:35:56;;;;;;;25.48;5.47;;;;;;;25.90;59.39;99140.03;7287059;19;131011;-37
2022/07/01 06:38:22;;;;;;;53.55;8.35;;;;;;;25.87;59.31;99130.66;7302727;19;129260;-38
2022/07/01 06:41:26;;;;;;;27.07;6.37;;;;;;;25.93;58.90;99135.22;7309213;19;129346;-39
2022/07/01 06:43:32;;;;;;;31.85;6.57;;;;;;;25.94;59.16;99141.28;7308843;19;129218;-38
2022/07/01 06:45:58;;;;;;;49.27;8.50;;;;;;;25.84;58.85;99125.75;7309912;19;129579;-38
2022/07/01 06:48:23;;;;;;;33.90;7.97;;;;;;;25.90;58.66;99135.56;7310900;19;129661;-39
2022/07/01 06:50:48;;;;;;;28.53;6.40;;;;;;;25.91;59.63;99129.31;7310269;19;130367;-38
2022/07/01 06:53:14;;;;;;;30.63;7.17;;;;;;;25.88;59.32;99111.22;7311776;19;128999;-40
2022/07/01 06:55:39;;;;;;;24.60;7.07;;;;;;;25.94;59.72;99120.22;7311234;19;129476;-39
2022/07/01 06:58:05;;;;;;;37.77;8.63;;;;;;;25.94;59.53;99121.03;7311723;19;129399;-37
2022/07/01 07:00:30;;;;;;;58.77;9.37;;;;;;;25.93;59.58;99110.69;7309550;19;129210;-39
2022/07/01 07:02:56;;;;;;;34.43;8.43;;;;;;;25.96;60.04;99119.06;7311299;19;129362;-39
2022/07/01 07:05:21;;;;;;;26.10;7.90;;;;;;;26.03;58.58;99119.19;7311508;19;129576;-41
2022/07/01 07:07:46;;;;;;;23.03;7.93;;;;;;;25.99;59.38;99133.66;7308494;19;129616;-37
2022/07/01 07:10:12;;;;;;;26.10;7.47;;;;;;;26.00;59.48;99136.13;7310717;19;129234;-38
2022/07/01 07:12:37;;;;;;;21.80;7.80;;;;;;;25.99;58.64;99138.94;7308788;19;128870;-38
2022/07/01 07:15:03;;;;;;;27.33;7.40;;;;;;;26.05;58.78;99139.06;7312198;19;129621;-38
2022/07/01 07:17:28;;;;;;;24.83;7.00;;;;;;;26.07;58.87;99150.25;7310864;19;130215;-40
2022/07/01 07:19:55;;;;;;;44.83;9.23;;;;;;;26.03;58.92;99162.13;7309004;19;130595;-42
2022/07/01 07:22:20;;;;;;;28.92;6.68;;;;;;;26.05;59.04;99156.72;7307981;19;129045;-39
2022/07/01 07:24:46;;;;;;;21.67;5.87;;;;;;;26.02;59.07;99162.31;7317491;19;129055;-40
2022/07/01 07:27:11;;;;;;;20.13;6.33;;;;;;;26.00;59.06;99182.75;7316480;19;129547;-38
2022/07/01 07:29:36;;;;;;;51.67;9.00;;;;;;;25.98;58.75;99180.25;7315837;19;129128;-37
2022/07/01 07:32:02;;;;;;;37.97;7.63;;;;;;;25.93;58.11;99182.63;7315734;19;129201;-40
2022/07/01 07:34:28;;;;;;;30.40;7.63;;;;;;;26.00;58.76;99178.28;7317687;19;129209;-39
2022/07/01 07:36:53;;;;;;;25.83;6.40;;;;;;;26.11;58.62;99183.16;7316356;19;130361;-38
2022/07/01 07:39:18;;;;;;;31.40;6.57;;;;;;;26.02;58.76;99175.50;7316731;19;128940;-40
2022/07/01 07:41:44;;;;;;;31.70;6.80;;;;;;;26.13;58.69;99204.84;7312767;19;129004;-40
2022/07/01 07:44:09;;;;;;;22.63;5.73;;;;;;;26.13;58.98;99204.06;7314154;19;129383;-39
2022/07/01 07:46:34;;;;;;;36.60;7.00;;;;;;;26.06;58.29;99217.13;7316936;19;129388;-41
2022/07/01 07:49:00;;;;;;;39.83;7.57;;;;;;;26.14;58.78;99214.41;7315903;19;129271;-37
2022/07/01 07:51:26;;;;;;;35.40;7.30;;;;;;;26.15;58.75;99208.16;7314064;19;128905;-40
2022/07/01 07:53:51;;;;;;;35.53;6.30;;;;;;;26.23;57.90;99220.44;7315148;19;129305;-38
2022/07/01 07:56:17;;;;;;;24.63;5.37;;;;;;;26.21;58.05;99232.97;7316667;19;129220;-42
2022/07/01 07:58:43;;;;;;;11.30;5.17;;;;;;;26.21;57.77;99238.25;7313550;19;129489;-38
2022/07/01 08:01:09;;;;;;;25.60;6.10;;;;;;;26.22;57.76;99237.22;7314583;19;130593;-38
2022/07/01 08:03:35;;;;;;;21.73;6.00;;;;;;;26.19;57.30;99243.69;7315344;19;130019;-39
2022/07/01 08:06:00;;;;;;;61.40;10.33;;;;;;;26.07;58.31;99237.19;7314909;19;130940;-39
2022/07/01 08:08:27;;;;;;;35.00;7.90;;;;;;;26.09;58.54;99235.22;7316195;19;129677;-42
2022/07/01 08:10:52;;;;;;;40.00;7.68;;;;;;;26.15;57.78;99239.75;7314071;19;129119;-37
2022/07/01 08:13:18;;;;;;;27.43;8.13;;;;;;;26.20;58.05;99232.16;7314851;19;129439;-39
2022/07/01 08:15:43;;;;;;;44.07;8.40;;;;;;;26.23;57.58;99241.53;7314601;19;129321;-38
2022/07/01 08:18:09;;;;;;;23.27;7.10;;;;;;;26.20;58.20;99253.22;7316029;19;128893;-39
2022/07/01 08:20:34;;;;;;;33.20;8.90;;;;;;;26.20;57.64;99242.69;7314818;19;128947;-39
2022/07/01 08:22:59;;;;;;;33.30;7.87;;;;;;;26.22;58.33;99253.88;7314932;19;129527;-39
2022/07/01 08:25:25;;;;;;;34.27;8.00;;;;;;;26.22;58.49;99245.97;7316159;19;129252;-39
2022/07/01 08:27:50;;;;;;;31.87;8.57;;;;;;;26.17;57.73;99253.59;7315513;19;129211;-39
2022/07/01 08:30:15;;;;;;;24.37;7.50;;;;;;;26.15;57.99;99268.75;7314709;19;129041;-37
2022/07/01 08:32:41;;;;;;;28.73;7.47;;;;;;;26.16;58.01;99270.41;7314512;19;129513;-38
2022/07/01 08:35:07;;;;;;;35.60;7.90;;;;;;;26.16;57.94;99273.03;7314022;19;129833;-40
2022/07/01 08:37:32;;;;;;;17.97;7.57;;;;;;;26.17;57.77;99272.03;7314819;19;129710;-36
2022/07/01 08:39:59;;;;;;;32.50;8.10;;;;;;;26.19;58.13;99277.13;7313437;19;129619;-39
2022/07/01 08:42:24;;;;;;;;;;;;;;;26.23;59.79;99273.94;7314905;19;131091;-38
2022/07/01 08:44:49;;;;;;;43.97;9.57;;;;;;;26.20;58.11;99278.75;7313577;19;129331;-37
2022/07/01 08:47:15;;;;;;;25.33;8.30;;;;;;;26.17;58.12;99287.84;7315244;19;128857;-40
2022/07/01 08:49:41;;;;;;;43.37;9.60;;;;;;;26.15;58.31;99276.66;7314499;19;129524;-38
2022/07/01 08:52:09;;;;;;;26.30;8.70;;;;;;;26.22;56.95;99288.13;7311875;19;130156;-38
2022/07/01 08:54:37;;;;;;;32.55;8.93;;;;;;;26.28;58.28;99287.41;7314584;19;130441;-37
2022/07/01 08:57:03;;;;;;;31.40;8.60;;;;;;;26.26;57.60;99284.13;7313808;19;128953;-39
2022/07/01 08:59:29;;;;;;;18.27;7.80;;;;;;;26.22;57.54;99288.13;7315196;19;129003;-37
2022/07/01 09:02:03;;;;;;;24.67;8.27;;;;;;;26.26;57.64;99304.41;7313342;19;131250;-39
2022/07/01 09:04:29;;;;;;;34.22;9.02;;;;;;;26.26;57.63;99289.41;7312157;19;129463;-38
2022/07/01 09:07:15;;;;;;;27.77;7.83;;;;;;;26.31;59.43;99294.16;7312284;19;129233;-38
2022/07/01 09:09:42;;;;;;;32.47;8.15;;;;;;;26.32;56.92;99298.44;7312650;19;128817;-37
2022/07/01 09:12:09;;;;;;;22.02;7.72;;;;;;;26.24;56.89;99299.31;7313895;19;130165;-39
2022/07/01 09:14:35;;;;;;;34.20;8.80;;;;;;;26.27;57.07;99312.16;7313165;19;131177;-39
2022/07/01 09:17:03;;;;;;;;;;;;;;;26.23;59.53;99297.66;7315841;19;129009;-38
2022/07/01 09:19:31;;;;;;;64.25;11.10;;;;;;;26.28;57.04;99319.03;7313737;19;129101;-38
2022/07/01 09:22:02;;;;;;;16.80;8.20;;;;;;;26.31;56.46;99317.88;7312076;19;130246;-38
2022/07/01 09:24:31;;;;;;;35.25;9.68;;;;;;;26.30;57.44;99322.34;7312963;19;130461;-37
2022/07/01 09:26:56;;;;;;;31.70;8.95;;;;;;;26.29;56.52;99333.88;7312787;19;129097;-38
2022/07/01 09:29:31;;;;;;;34.57;9.33;;;;;;;26.27;57.88;99343.78;7314182;19;128891;-38
2022/07/01 09:31:57;;;;;;;39.55;10.10;;;;;;;26.20;57.48;99358.63;7311837;19;130171;-38
2022/07/01 09:34:23;;;;;;;30.00;8.65;;;;;;;26.20;57.08;99348.09;7314427;19;129112;-38
2022/07/01 09:36:56;;;;;;;32.50;9.47;;;;;;;26.22;58.31;99351.38;7313427;19;130986;-38
2022/07/01 09:39:21;;;;;;;29.85;8.70;;;;;;;26.16;56.93;99367.91;7313522;19;129491;-38
2022/07/01 09:41:47;;;;;;;38.30;10.03;;;;;;;26.14;56.83;99354.09;7311612;19;130210;-38
2022/07/01 09:44:13;;;;;;;25.43;8.80;;;;;;;26.18;56.67;99360.63;7311508;19;130433;-38
2022/07/01 09:46:52;;;;;;;29.40;9.10;;;;;;;26.14;59.19;99363.78;7313484;19;129138;-38
2022/07/01 09:49:17;;;;;;;26.50;8.63;;;;;;;26.01;56.78;99374.91;7312292;19;129103;-38
2022/07/01 09:51:44;;;;;;;28.20;9.20;;;;;;;26.00;56.12;99378.50;7312399;19;129708;-38
2022/07/01 09:54:12;;;;;;;24.67;8.30;;;;;;;26.05;57.83;99386.72;7312159;19;129571;-38
2022/07/01 09:56:37;;;;;;;43.75;9.35;;;;;;;26.01;56.95;99396.00;7313376;19;129578;-38
2022/07/01 09:59:03;;;;;;;29.47;8.43;;;;;;;26.00;56.33;99396.94;7312907;19;130352;-38
2022/07/01 10:01:31;;;;;;;30.43;7.17;;;;;;;26.02;56.94;99397.63;7311800;19;129188;-38
2022/07/01 10:03:57;;;;;;;27.77;7.35;;;;;;;26.09;56.89;99403.84;7313714;19;130317;-38
2022/07/01 10:06:23;;;;;;;;;;;;;;;26.12;58.99;99400.03;7313938;19;129651;-38
2022/07/01 10:09:22;;;;;;;48.70;8.93;;;;;;;26.04;58.51;99390.38;7310657;19;129671;-38
2022/07/01 10:12:08;;;;;;;34.38;7.72;;;;;;;26.12;58.03;99386.84;7311221;19;130314;-38
2022/07/01 10:14:38;;;;;;;28.75;6.93;;;;;;;26.04;56.92;99371.94;7311849;19;131436;-37
2022/07/01 10:17:03;;;;;;;26.45;7.00;;;;;;;26.08;56.63;99389.00;7313704;19;129585;-37
2022/07/01 10:19:30;;;;;;;40.87;7.83;;;;;;;26.10;56.06;99381.75;7311564;19;129095;-37
2022/07/01 10:22:01;;;;;;;32.70;6.80;;;;;;;26.15;57.20;99397.03;7310444;19;130802;-37
2022/07/01 10:24:27;;;;;;;30.95;6.78;;;;;;;26.10;56.44;99397.56;7310657;19;130393;-38
2022/07/01 10:26:59;;;;;;;23.60;6.28;;;;;;;26.19;56.71;99399.19;7312363;19;129045;-38
2022/07/01 10:29:36;;;;;;;28.17;6.57;;;;;;;26.05;56.45;99389.38;7311477;19;129626;-37
2022/07/01 10:32:20;;;;;;;43.17;6.90;;;;;;;26.11;58.40;99380.78;7307790;19;130029;-37
2022/07/01 10:34:45;;;;;;;24.05;5.30;;;;;;;26.14;55.62;99383.06;7312377;19;129986;-38
2022/07/01 10:37:11;;;;;;;36.50;6.57;;;;;;;26.07;56.17;99378.66;7309532;19;130514;-38
2022/07/01 10:40:00;;;;;;;28.63;5.53;;;;;;;26.05;58.87;99392.00;7311696;19;129329;-38
2022/07/01 10:42:55;;;;;;;41.22;7.07;;;;;;;26.04;57.51;99387.75;7307756;19;130769;-38
2022/07/01 10:45:20;;;;;;;35.63;6.35;;;;;;;26.11;55.91;99375.53;7312987;19;129799;-37
2022/07/01 10:47:46;;;;;;;27.93;5.37;;;;;;;26.09;55.69;99384.56;7312228;19;128785;-38
2022/07/01 10:50:15;;;;;;;11.53;4.23;;;;;;;26.07;55.18;99379.47;7309917;19;129128;-37
2022/07/01 10:52:59;;;;;;;32.15;5.45;;;;;;;26.11;57.74;99386.06;7308676;19;130733;-37
2022/07/01 10:55:39;;;;;;;25.98;5.13;;;;;;;26.12;56.91;99366.59;7311546;19;130491;-38
2022/07/01 10:58:04;;;;;;;32.92;5.57;;;;;;;26.10;55.11;99381.75;7316971;19;129279;-37
2022/07/01 11:00:35;;;;;;;40.67;6.60;;;;;;;26.05;56.14;99368.28;7314675;19;128923;-37
2022/07/01 11:03:09;;;;;;;36.88;6.38;;;;;;;26.13;57.32;99378.78;7317887;19;130025;-38
2022/07/01 11:05:36;;;;;;;57.58;7.07;;;;;;;26.15;56.00;99387.34;7307292;19;130484;-37
2022/07/01 11:08:04;;;;;;;64.03;7.97;;;;;;;26.07;55.67;99379.47;7310205;19;129224;-38
2022/07/01 11:10:30;;;;;;;42.25;6.28;;;;;;;26.02;54.87;99371.28;7311851;19;129126;-38
2022/07/01 11:12:55;;;;;;;41.87;6.20;;;;;;;25.95;54.67;99375.56;7310274;19;130948;-38
2022/07/01 11:15:22;;;;;;;46.70;5.93;;;;;;;25.96;55.38;99395.66;7312513;19;130188;-38
2022/07/01 11:17:49;;;;;;;45.03;5.75;;;;;;;26.07;55.55;99395.28;7309928;19;129323;-37
2022/07/01 11:20:16;;;;;;;41.97;5.43;;;;;;;26.11;55.54;99380.78;7312194;19;129298;-37
2022/07/01 11:22:41;;;;;;;30.20;4.30;;;;;;;26.16;55.55;99402.16;7309456;19;129816;-37
2022/07/01 11:25:09;;;;;;;45.13;5.77;;;;;;;26.17;55.48;99421.41;7308268;19;129308;-38
2022/07/01 11:27:36;;;;;;;47.13;6.05;;;;;;;26.14;54.70;99434.94;7313055;19;129969;-38
2022/07/01 11:30:11;;;;;;;67.03;7.78;;;;;;;26.16;55.89;99441.69;7309063;19;130450;-37
2022/07/01 11:32:43;;;;;;;40.35;4.93;;;;;;;26.08;54.56;99457.53;7309403;19;130854;-37